Saint Croix Falls, Wisconsin
Current Conditions -  °F | °C
As of 5:15 AM on Tuesday 21 Oct 2014 (Local Time) from KOEO Reporting Station
Moderate Fog Moderate Fog  
Wind Chill: 31°   Ceiling: 100
Heat Index: 31°   Visibility: 0.25mi
Dew Point: 31°   Wind: 0mph
Humidity: 100%   Direction: NA
Pressure: 30.19"   Gusts: NA
Location:  45.41°N, 92.64°W
Report Text: KOEO 211015Z AUTO 00000KT 1/4SM FZFG OVC001 M01/M01 A3019 RMK AO2 T10061006
Loading
Personal Weather Stations






























Interactive Weather Map
Tropical Storm Tracking
New forecast layout! Learn more

10-Day Weather Forecast

Advertisements
Track Severe Weather on mobile